createdAt,value
2018-08-09T00:01:21.627Z,25.53
2018-08-09T00:02:21.583Z,25.47
2018-08-09T00:04:14.409Z,25.64
2018-08-09T00:05:14.333Z,25.50
2018-08-09T00:07:07.127Z,25.56
2018-08-09T00:08:07.082Z,25.44
2018-08-09T00:09:59.907Z,25.49
2018-08-09T00:10:59.832Z,25.52
2018-08-09T00:12:52.629Z,25.54
2018-08-09T00:13:52.583Z,25.47
2018-08-09T00:15:45.407Z,25.59
2018-08-09T00:16:45.331Z,25.50
2018-08-09T00:18:38.126Z,25.50
2018-08-09T00:19:38.081Z,25.49
2018-08-09T00:21:30.909Z,25.44
2018-08-09T00:22:30.834Z,25.44
2018-08-09T00:24:23.629Z,25.50
2018-08-09T00:25:23.581Z,25.52
2018-08-09T00:27:16.410Z,25.44
2018-08-09T00:28:16.330Z,25.49
2018-08-09T00:30:09.125Z,25.49
2018-08-09T00:31:09.077Z,25.46
2018-08-09T00:33:01.903Z,25.31
2018-08-09T00:34:01.827Z,25.31
2018-08-09T00:35:54.621Z,25.37
2018-08-09T00:36:54.576Z,25.30
2018-08-09T00:38:47.400Z,25.28
2018-08-09T00:39:47.325Z,25.24
2018-08-09T00:41:40.119Z,25.28
2018-08-09T00:42:40.074Z,25.27
2018-08-09T00:44:32.898Z,25.19
2018-08-09T00:45:32.822Z,25.16
2018-08-09T00:47:25.618Z,25.19
2018-08-09T00:48:25.571Z,25.17
2018-08-09T00:50:18.396Z,25.24
2018-08-09T00:51:18.318Z,25.19
2018-08-09T00:53:11.116Z,25.15
2018-08-09T00:54:11.069Z,25.07
2018-08-09T00:56:03.894Z,25.02
2018-08-09T00:57:03.821Z,25.01
2018-08-09T00:58:56.614Z,25.01
2018-08-09T00:59:56.569Z,24.97
2018-08-09T01:01:49.394Z,24.95
2018-08-09T01:02:49.319Z,25.00
2018-08-09T01:04:42.115Z,24.98
2018-08-09T01:05:42.068Z,25.02
2018-08-09T01:07:34.891Z,24.88
2018-08-09T01:08:34.814Z,24.87
2018-08-09T01:10:27.608Z,24.90
2018-08-09T01:11:27.560Z,24.90
2018-08-09T01:13:20.385Z,24.91
2018-08-09T01:14:20.310Z,24.91
2018-08-09T01:16:13.105Z,24.87
2018-08-09T01:17:13.060Z,24.88
2018-08-09T01:19:05.885Z,24.91
2018-08-09T01:20:05.810Z,24.91
2018-08-09T01:21:58.604Z,24.88
2018-08-09T01:22:58.557Z,24.85
2018-08-09T01:24:51.387Z,24.88
2018-08-09T01:25:51.308Z,24.94
2018-08-09T01:27:44.099Z,24.85
2018-08-09T01:28:44.053Z,24.90
2018-08-09T01:30:36.883Z,24.87
2018-08-09T01:31:36.808Z,24.92
2018-08-09T01:33:29.602Z,24.85
2018-08-09T01:34:29.557Z,24.92
2018-08-09T01:36:22.381Z,24.92
2018-08-09T01:37:22.305Z,24.90
2018-08-09T01:39:15.099Z,24.88
2018-08-09T01:40:15.053Z,24.92
2018-08-09T01:42:07.876Z,24.91
2018-08-09T01:43:07.799Z,24.90
2018-08-09T01:45:00.592Z,24.88
2018-08-09T01:46:00.545Z,24.91
2018-08-09T01:47:53.370Z,24.77
2018-08-09T01:48:53.296Z,24.92
2018-08-09T01:50:46.091Z,24.83
2018-08-09T01:51:46.045Z,24.87
2018-08-09T01:53:38.872Z,24.79
2018-08-09T01:54:38.796Z,24.80
2018-08-09T01:56:31.589Z,24.76
2018-08-09T01:57:31.540Z,24.68
2018-08-09T01:59:24.386Z,24.79
2018-08-09T02:00:24.289Z,24.73
2018-08-09T02:02:17.084Z,24.67
2018-08-09T02:03:17.038Z,24.75
2018-08-09T02:05:09.979Z,24.68
2018-08-09T02:06:09.789Z,24.71
2018-08-09T02:08:02.582Z,24.75
2018-08-09T02:09:02.543Z,24.73
2018-08-09T02:10:55.362Z,24.80
2018-08-09T02:11:55.282Z,24.80
2018-08-09T02:13:48.079Z,24.77
2018-08-09T02:14:48.034Z,24.67
2018-08-09T02:16:40.860Z,24.79
2018-08-09T02:17:40.786Z,24.67
2018-08-09T02:19:33.579Z,24.77
2018-08-09T02:20:33.531Z,24.76
2018-08-09T02:22:26.362Z,24.73
2018-08-09T02:23:26.281Z,24.73
2018-08-09T02:25:19.076Z,24.73
2018-08-09T02:26:19.030Z,24.79
2018-08-09T02:28:11.854Z,24.64
2018-08-09T02:29:11.779Z,24.75
2018-08-09T02:31:04.573Z,24.77
2018-08-09T02:32:04.528Z,24.76
2018-08-09T02:33:57.360Z,24.60
2018-08-09T02:34:57.277Z,24.61
2018-08-09T02:36:50.070Z,24.57
2018-08-09T02:37:50.025Z,24.71
2018-08-09T02:39:42.849Z,24.59
2018-08-09T02:40:42.776Z,24.63
2018-08-09T02:42:35.565Z,24.63
2018-08-09T02:43:35.521Z,24.60
2018-08-09T02:45:28.344Z,24.47
2018-08-09T02:46:28.269Z,24.54
2018-08-09T02:48:21.064Z,24.50
2018-08-09T02:49:21.021Z,24.49
2018-08-09T02:51:13.841Z,24.52
2018-08-09T02:52:13.765Z,24.50
2018-08-09T02:54:06.560Z,24.52
2018-08-09T02:55:06.519Z,24.54
2018-08-09T02:56:59.338Z,24.49
2018-08-09T02:57:59.260Z,24.52
2018-08-09T02:59:52.052Z,24.42
2018-08-09T03:00:52.007Z,24.42
2018-08-09T03:02:44.833Z,24.44
2018-08-09T03:03:44.755Z,24.45
2018-08-09T03:05:37.551Z,24.53
2018-08-09T03:06:37.504Z,24.45
2018-08-09T03:08:30.356Z,24.41
2018-08-09T03:09:30.252Z,24.45
2018-08-09T03:11:23.047Z,24.53
2018-08-09T03:12:23.001Z,24.50
2018-08-09T03:14:15.824Z,24.49
2018-08-09T03:15:15.749Z,24.44
2018-08-09T03:17:08.551Z,24.50
2018-08-09T03:18:08.492Z,24.39
2018-08-09T03:20:01.334Z,24.41
2018-08-09T03:21:01.242Z,24.52
2018-08-09T03:22:54.035Z,24.41
2018-08-09T03:23:53.991Z,24.50
2018-08-09T03:25:46.812Z,24.37
2018-08-09T03:26:46.736Z,24.41
2018-08-09T03:28:39.529Z,24.44
2018-08-09T03:29:39.483Z,24.38
2018-08-09T03:31:32.309Z,24.42
2018-08-09T03:32:32.231Z,24.42
2018-08-09T03:34:25.028Z,24.41
2018-08-09T03:35:24.978Z,24.39
2018-08-09T03:37:17.803Z,24.41
2018-08-09T03:38:17.728Z,24.32
2018-08-09T03:40:10.521Z,24.39
2018-08-09T03:41:10.477Z,24.31
2018-08-09T03:43:03.303Z,24.37
2018-08-09T03:44:03.224Z,24.31
2018-08-09T03:45:56.021Z,24.27
2018-08-09T03:46:55.973Z,24.29
2018-08-09T03:48:48.796Z,24.29
2018-08-09T03:49:48.718Z,24.26
2018-08-09T03:51:41.512Z,24.10
2018-08-09T03:52:41.465Z,24.20
2018-08-09T03:54:34.288Z,24.10
2018-08-09T03:55:34.214Z,24.02
2018-08-09T03:57:27.008Z,24.10
2018-08-09T03:58:26.961Z,24.07
2018-08-09T04:00:19.802Z,24.08
2018-08-09T04:01:19.707Z,24.16
2018-08-09T04:03:12.500Z,24.12
2018-08-09T04:04:12.453Z,24.08
2018-08-09T04:06:05.279Z,24.12
2018-08-09T04:07:05.200Z,24.08
2018-08-09T04:08:57.993Z,24.10
2018-08-09T04:09:57.945Z,24.17
2018-08-09T04:11:50.778Z,24.02
2018-08-09T04:12:50.693Z,24.19
2018-08-09T04:14:43.486Z,24.16
2018-08-09T04:15:43.441Z,24.07
2018-08-09T04:17:36.266Z,24.22
2018-08-09T04:18:36.190Z,24.10
2018-08-09T04:20:28.981Z,24.07
2018-08-09T04:21:28.935Z,24.17
2018-08-09T04:23:21.760Z,24.10
2018-08-09T04:24:21.684Z,24.07
2018-08-09T04:26:14.478Z,24.17
2018-08-09T04:27:14.430Z,24.16
2018-08-09T04:29:07.255Z,24.14
2018-08-09T04:30:07.179Z,24.22
2018-08-09T04:31:59.972Z,24.08
2018-08-09T04:32:59.926Z,24.16
2018-08-09T04:34:52.749Z,24.07
2018-08-09T04:35:52.673Z,24.17
2018-08-09T04:37:45.466Z,24.12
2018-08-09T04:38:45.416Z,24.08
2018-08-09T04:40:38.240Z,24.10
2018-08-09T04:41:38.163Z,24.13
2018-08-09T04:43:30.957Z,24.13
2018-08-09T04:44:30.914Z,24.16
2018-08-09T04:46:23.736Z,24.16
2018-08-09T04:47:23.661Z,24.12
2018-08-09T04:49:16.468Z,24.10
2018-08-09T04:50:16.416Z,24.12
2018-08-09T04:52:09.276Z,24.16
2018-08-09T04:53:09.159Z,24.20
2018-08-09T04:55:01.954Z,24.23
2018-08-09T04:56:01.906Z,24.24
2018-08-09T04:57:54.730Z,24.24
2018-08-09T04:58:54.652Z,24.24
2018-08-09T05:00:47.449Z,24.24
2018-08-09T05:01:47.401Z,24.24
2018-08-09T05:03:40.246Z,24.16
2018-08-09T05:04:40.149Z,24.17
2018-08-09T05:06:32.944Z,24.13
2018-08-09T05:07:32.898Z,24.16
2018-08-09T05:09:25.720Z,24.19
2018-08-09T05:10:25.732Z,24.10
2018-08-09T05:12:18.436Z,24.17
2018-08-09T05:13:18.389Z,24.17
2018-08-09T05:15:11.217Z,24.26
2018-08-09T05:16:11.142Z,24.24
2018-08-09T05:18:03.938Z,24.31
2018-08-09T05:19:03.887Z,24.23
2018-08-09T05:20:56.715Z,24.24
2018-08-09T05:21:56.636Z,24.29
2018-08-09T05:23:49.435Z,24.27
2018-08-09T05:24:49.388Z,24.27
2018-08-09T05:26:42.228Z,24.31
2018-08-09T05:27:42.135Z,24.31
2018-08-09T05:29:34.928Z,24.24
2018-08-09T05:30:34.882Z,24.31
2018-08-09T05:32:27.708Z,24.22
2018-08-09T05:33:27.637Z,24.22
2018-08-09T05:35:20.426Z,24.37
2018-08-09T05:36:20.379Z,24.29
2018-08-09T05:38:13.220Z,24.35
2018-08-09T05:39:13.126Z,24.34
2018-08-09T05:41:05.920Z,24.38
2018-08-09T05:42:05.875Z,24.29
2018-08-09T05:43:58.696Z,24.35
2018-08-09T05:44:58.617Z,24.32
2018-08-09T05:46:51.415Z,24.35
2018-08-09T05:47:51.366Z,24.32
2018-08-09T05:49:44.189Z,24.35
2018-08-09T05:50:44.110Z,24.38
2018-08-09T05:52:36.913Z,24.44
2018-08-09T05:53:36.855Z,24.39
2018-08-09T05:55:29.682Z,24.39
2018-08-09T05:56:29.607Z,24.42
2018-08-09T05:58:22.429Z,24.42
2018-08-09T05:59:22.354Z,24.38
2018-08-09T06:01:15.178Z,24.38
2018-08-09T06:02:15.100Z,24.34
2018-08-09T06:04:07.894Z,24.42
2018-08-09T06:05:07.847Z,24.45
2018-08-09T06:07:00.689Z,24.47
2018-08-09T06:08:00.593Z,24.47
2018-08-09T06:09:53.388Z,24.52
2018-08-09T06:10:53.345Z,24.56
2018-08-09T06:12:46.166Z,24.53
2018-08-09T06:13:46.089Z,24.49
2018-08-09T06:15:38.883Z,24.53
2018-08-09T06:16:38.835Z,24.61
2018-08-09T06:18:31.658Z,24.60
2018-08-09T06:19:31.582Z,24.54
2018-08-09T06:21:24.377Z,24.61
2018-08-09T06:22:24.331Z,24.61
2018-08-09T06:24:17.154Z,24.60
2018-08-09T06:25:17.079Z,24.68
2018-08-09T06:27:09.874Z,24.61
2018-08-09T06:28:09.826Z,24.68
2018-08-09T06:30:02.655Z,24.79
2018-08-09T06:31:02.571Z,24.75
2018-08-09T06:32:55.366Z,24.77
2018-08-09T06:33:55.318Z,24.75
2018-08-09T06:35:48.159Z,24.69
2018-08-09T06:36:48.067Z,24.63
2018-08-09T06:38:40.859Z,24.61
2018-08-09T06:39:40.812Z,24.60
2018-08-09T06:41:33.637Z,24.59
2018-08-09T06:42:33.560Z,24.68
2018-08-09T06:44:26.354Z,24.59
2018-08-09T06:45:26.306Z,24.61
2018-08-09T06:47:19.150Z,24.75
2018-08-09T06:48:19.054Z,24.68
2018-08-09T06:50:11.854Z,24.76
2018-08-09T06:51:11.801Z,24.67
2018-08-09T06:53:04.627Z,24.75
2018-08-09T06:54:04.554Z,24.75
2018-08-09T06:55:57.343Z,24.77
2018-08-09T06:56:57.294Z,24.79
2018-08-09T06:58:50.134Z,24.80
2018-08-09T06:59:50.042Z,24.83
2018-08-09T07:01:42.835Z,24.83
2018-08-09T07:02:42.790Z,24.83
2018-08-09T07:04:35.619Z,24.88
2018-08-09T07:05:35.536Z,24.88
2018-08-09T07:07:28.335Z,24.85
2018-08-09T07:08:28.284Z,24.91
2018-08-09T07:10:21.110Z,24.87
2018-08-09T07:11:21.032Z,24.88
2018-08-09T07:13:13.824Z,24.83
2018-08-09T07:14:13.776Z,24.90
2018-08-09T07:16:06.602Z,24.91
2018-08-09T07:17:06.525Z,24.91
2018-08-09T07:18:59.321Z,24.90
2018-08-09T07:19:59.273Z,24.98
2018-08-09T07:21:52.095Z,24.95
2018-08-09T07:22:52.022Z,25.00
2018-08-09T07:24:44.815Z,25.00
2018-08-09T07:25:44.774Z,24.92
2018-08-09T07:27:37.593Z,25.06
2018-08-09T07:28:37.518Z,25.01
2018-08-09T07:30:30.311Z,24.98
2018-08-09T07:31:30.264Z,24.94
2018-08-09T07:33:23.104Z,24.91
2018-08-09T07:34:23.011Z,24.97
2018-08-09T07:36:15.809Z,24.98
2018-08-09T07:37:15.762Z,25.05
2018-08-09T07:39:08.627Z,24.95
2018-08-09T07:40:08.511Z,25.01
2018-08-09T07:42:01.305Z,25.05
2018-08-09T07:43:01.258Z,25.02
2018-08-09T07:44:54.084Z,25.00
2018-08-09T07:45:54.006Z,25.01
2018-08-09T07:47:46.800Z,25.02
2018-08-09T07:48:46.801Z,25.01
2018-08-09T07:50:39.578Z,25.02
2018-08-09T07:51:39.500Z,25.06
2018-08-09T07:53:32.296Z,25.05
2018-08-09T07:54:32.252Z,25.02
2018-08-09T07:56:25.077Z,25.07
2018-08-09T07:57:25.001Z,25.01
2018-08-09T07:59:17.792Z,25.12
2018-08-09T08:00:17.745Z,25.02
2018-08-09T08:02:10.575Z,25.07
2018-08-09T08:03:10.491Z,25.10
2018-08-09T08:05:03.284Z,25.13
2018-08-09T08:06:03.279Z,25.05
2018-08-09T08:07:56.081Z,25.07
2018-08-09T08:08:56.013Z,25.09
2018-08-09T08:10:48.780Z,25.09
2018-08-09T08:11:48.734Z,25.12
2018-08-09T08:13:41.557Z,25.10
2018-08-09T08:14:41.484Z,25.16
2018-08-09T08:16:34.277Z,25.17
2018-08-09T08:17:34.230Z,25.12
2018-08-09T08:19:27.074Z,25.15
2018-08-09T08:20:26.979Z,25.12
2018-08-09T08:22:19.772Z,25.09
2018-08-09T08:23:19.725Z,25.12
2018-08-09T08:25:12.567Z,25.09
2018-08-09T08:26:12.474Z,25.19
2018-08-09T08:28:05.268Z,25.12
2018-08-09T08:29:05.222Z,25.13
2018-08-09T08:30:58.045Z,25.12
2018-08-09T08:31:57.970Z,25.15
2018-08-09T08:33:50.764Z,25.10
2018-08-09T08:34:50.717Z,25.20
2018-08-09T08:36:43.557Z,25.09
2018-08-09T08:37:43.466Z,25.12
2018-08-09T08:39:36.257Z,25.15
2018-08-09T08:40:36.210Z,25.15
2018-08-09T08:42:29.036Z,25.20
2018-08-09T08:43:28.959Z,25.15
2018-08-09T08:45:21.756Z,25.16
2018-08-09T08:46:21.708Z,25.12
2018-08-09T08:48:14.533Z,25.17
2018-08-09T08:49:14.457Z,25.17
2018-08-09T08:51:07.253Z,25.16
2018-08-09T08:52:07.206Z,25.19
2018-08-09T08:54:00.032Z,25.22
2018-08-09T08:54:59.954Z,25.24
2018-08-09T08:56:52.748Z,25.17
2018-08-09T08:57:52.700Z,25.19
2018-08-09T08:59:45.545Z,25.22
2018-08-09T09:00:45.495Z,25.10
2018-08-09T09:02:38.245Z,25.17
2018-08-09T09:03:38.199Z,25.20
2018-08-09T09:05:31.022Z,25.12
2018-08-09T09:06:30.943Z,25.22
2018-08-09T09:08:23.744Z,25.24
2018-08-09T09:09:23.693Z,25.16
2018-08-09T09:11:16.519Z,25.16
2018-08-09T09:12:16.444Z,25.19
2018-08-09T09:14:09.240Z,25.17
2018-08-09T09:15:09.191Z,25.22
2018-08-09T09:17:02.014Z,25.20
2018-08-09T09:18:01.934Z,25.19
2018-08-09T09:19:54.734Z,25.24
2018-08-09T09:20:54.683Z,25.25
2018-08-09T09:22:47.524Z,25.17
2018-08-09T09:23:47.430Z,25.16
2018-08-09T09:25:40.227Z,25.20
2018-08-09T09:26:40.175Z,25.16
2018-08-09T09:28:33.001Z,25.20
2018-08-09T09:29:32.922Z,25.17
2018-08-09T09:31:25.718Z,25.16
2018-08-09T09:32:25.675Z,25.20
2018-08-09T09:34:18.495Z,25.20
2018-08-09T09:35:18.421Z,25.16
2018-08-09T09:37:11.215Z,25.17
2018-08-09T09:38:11.170Z,25.17
2018-08-09T09:40:03.996Z,25.16
2018-08-09T09:41:03.919Z,25.17
2018-08-09T09:42:56.716Z,25.20
2018-08-09T09:43:56.668Z,25.20
2018-08-09T09:45:49.493Z,25.15
2018-08-09T09:46:49.416Z,25.15
2018-08-09T09:48:42.211Z,25.20
2018-08-09T09:49:42.185Z,25.25
2018-08-09T09:51:34.994Z,25.16
2018-08-09T09:52:34.913Z,25.24
2018-08-09T09:54:27.707Z,25.17
2018-08-09T09:55:27.662Z,25.17
2018-08-09T09:57:20.489Z,25.24
2018-08-09T09:58:20.413Z,25.25
2018-08-09T10:00:13.208Z,25.17
2018-08-09T10:01:13.158Z,25.25
2018-08-09T10:03:05.994Z,25.15
2018-08-09T10:04:05.908Z,25.22
2018-08-09T10:05:58.705Z,25.22
2018-08-09T10:06:58.666Z,25.30
2018-08-09T10:08:51.482Z,25.27
2018-08-09T10:09:51.405Z,25.20
2018-08-09T10:11:44.201Z,25.19
2018-08-09T10:12:44.178Z,25.19
2018-08-09T10:14:36.997Z,25.17
2018-08-09T10:15:36.903Z,25.22
2018-08-09T10:17:29.696Z,25.17
2018-08-09T10:18:29.648Z,25.20
2018-08-09T10:20:22.492Z,25.19
2018-08-09T10:21:22.402Z,25.25
2018-08-09T10:23:15.193Z,25.28
2018-08-09T10:24:15.146Z,25.12
2018-08-09T10:26:07.972Z,25.12
2018-08-09T10:27:07.896Z,25.30
2018-08-09T10:29:00.693Z,25.16
2018-08-09T10:30:00.713Z,25.28
2018-08-09T10:31:53.472Z,25.19
2018-08-09T10:32:53.403Z,25.20
2018-08-09T10:34:46.189Z,25.31
2018-08-09T10:35:46.142Z,25.28
2018-08-09T10:37:38.966Z,25.22
2018-08-09T10:38:38.894Z,25.28
2018-08-09T10:40:31.691Z,25.30
2018-08-09T10:41:31.644Z,25.15
2018-08-09T10:43:24.468Z,25.28
2018-08-09T10:44:24.395Z,25.27
2018-08-09T10:46:17.191Z,25.19
2018-08-09T10:47:17.144Z,25.27
2018-08-09T10:49:09.974Z,25.19
2018-08-09T10:50:09.897Z,25.25
2018-08-09T10:52:02.692Z,25.25
2018-08-09T10:53:02.643Z,25.22
2018-08-09T10:54:55.468Z,25.27
2018-08-09T10:55:55.393Z,25.34
2018-08-09T10:57:48.187Z,25.30
2018-08-09T10:58:48.138Z,25.30
2018-08-09T11:00:40.985Z,25.31
2018-08-09T11:01:40.940Z,25.25
2018-08-09T11:03:33.684Z,25.22
2018-08-09T11:04:33.636Z,25.25
2018-08-09T11:06:26.478Z,25.19
2018-08-09T11:07:26.384Z,25.25
2018-08-09T11:09:19.180Z,25.34
2018-08-09T11:10:19.134Z,25.32
2018-08-09T11:12:11.967Z,25.25
2018-08-09T11:13:11.892Z,25.28
2018-08-09T11:15:04.712Z,25.34
2018-08-09T11:16:04.640Z,25.27
2018-08-09T11:17:57.468Z,25.31
2018-08-09T11:18:57.390Z,25.28
2018-08-09T11:20:50.186Z,25.32
2018-08-09T11:21:50.140Z,25.28
2018-08-09T11:23:42.995Z,25.30
2018-08-09T11:24:42.892Z,25.28
2018-08-09T11:26:35.684Z,25.30
2018-08-09T11:27:35.638Z,25.28
2018-08-09T11:29:28.464Z,25.32
2018-08-09T11:30:28.388Z,25.30
2018-08-09T11:32:21.183Z,25.19
2018-08-09T11:33:21.135Z,25.38
2018-08-09T11:35:13.963Z,25.39
2018-08-09T11:36:13.882Z,25.34
2018-08-09T11:38:06.678Z,25.34
2018-08-09T11:39:06.637Z,25.32
2018-08-09T11:40:59.474Z,25.31
2018-08-09T11:41:59.382Z,25.31
2018-08-09T11:43:52.178Z,25.32
2018-08-09T11:44:52.134Z,25.28
2018-08-09T11:46:44.956Z,25.30
2018-08-09T11:47:44.881Z,25.35
2018-08-09T11:49:37.679Z,25.31
2018-08-09T11:50:37.631Z,25.28
2018-08-09T11:52:30.462Z,25.34
2018-08-09T11:53:30.379Z,25.28
2018-08-09T11:55:23.177Z,25.31
2018-08-09T11:56:23.211Z,25.37
2018-08-09T11:58:15.955Z,25.19
2018-08-09T11:59:15.876Z,25.34
2018-08-09T12:01:08.672Z,25.24
2018-08-09T12:02:08.627Z,25.39
2018-08-09T12:04:01.471Z,25.31
2018-08-09T12:05:01.374Z,25.35
2018-08-09T12:06:54.167Z,25.37
2018-08-09T12:07:54.122Z,25.37
2018-08-09T12:09:46.948Z,25.28
2018-08-09T12:10:46.872Z,25.39
2018-08-09T12:12:39.668Z,25.39
2018-08-09T12:13:39.643Z,25.37
2018-08-09T12:15:32.446Z,25.31
2018-08-09T12:16:32.374Z,25.38
2018-08-09T12:18:25.166Z,25.42
2018-08-09T12:19:25.120Z,25.30
2018-08-09T12:21:17.963Z,25.32
2018-08-09T12:22:17.876Z,25.31
2018-08-09T12:24:10.665Z,25.34
2018-08-09T12:25:10.619Z,25.32
2018-08-09T12:27:03.471Z,25.42
2018-08-09T12:28:03.370Z,25.35
2018-08-09T12:29:56.165Z,25.32
2018-08-09T12:30:56.120Z,25.30
2018-08-09T12:32:48.944Z,25.30
2018-08-09T12:33:48.867Z,25.42
2018-08-09T12:35:41.662Z,25.32
2018-08-09T12:36:41.638Z,25.31
2018-08-09T12:38:34.441Z,25.37
2018-08-09T12:39:34.366Z,25.34
2018-08-09T12:41:27.159Z,25.28
2018-08-09T12:42:27.114Z,25.34
2018-08-09T12:44:19.956Z,25.37
2018-08-09T12:45:19.957Z,25.31
2018-08-09T12:47:12.657Z,25.34
2018-08-09T12:48:12.612Z,25.31
2018-08-09T12:50:05.437Z,25.32
2018-08-09T12:51:05.360Z,25.42
2018-08-09T12:52:58.166Z,25.28
2018-08-09T12:53:58.109Z,25.42
2018-08-09T12:55:50.935Z,25.32
2018-08-09T12:56:50.858Z,25.32
2018-08-09T12:58:43.654Z,25.37
2018-08-09T12:59:43.607Z,25.42
2018-08-09T13:01:36.452Z,25.42
2018-08-09T13:02:36.357Z,25.38
2018-08-09T13:04:29.154Z,25.42
2018-08-09T13:05:29.108Z,25.35
2018-08-09T13:07:21.932Z,25.47
2018-08-09T13:08:21.882Z,25.44
2018-08-09T13:10:14.654Z,25.42
2018-08-09T13:11:14.608Z,25.43
2018-08-09T13:13:07.430Z,25.42
2018-08-09T13:14:07.354Z,25.31
2018-08-09T13:16:00.149Z,25.31
2018-08-09T13:17:00.163Z,25.39
2018-08-09T13:18:52.949Z,25.42
2018-08-09T13:19:52.851Z,25.42
2018-08-09T13:21:45.648Z,25.46
2018-08-09T13:22:45.602Z,25.46
2018-08-09T13:24:38.463Z,25.44
2018-08-09T13:25:38.354Z,25.42
2018-08-09T13:27:31.146Z,25.43
2018-08-09T13:28:31.101Z,25.46
2018-08-09T13:30:24.000Z,25.43
2018-08-09T13:31:23.849Z,25.46
2018-08-09T13:33:16.652Z,25.42
2018-08-09T13:34:16.600Z,25.43
2018-08-09T13:36:09.427Z,25.46
2018-08-09T13:37:09.355Z,25.47
2018-08-09T13:39:02.147Z,25.46
2018-08-09T13:40:02.103Z,25.46
2018-08-09T13:41:54.943Z,25.43
2018-08-09T13:42:54.855Z,25.46
2018-08-09T13:44:47.645Z,25.47
2018-08-09T13:45:47.601Z,25.46
2018-08-09T13:47:40.426Z,25.42
2018-08-09T13:48:40.350Z,25.42
2018-08-09T13:50:33.147Z,25.39
2018-08-09T13:51:33.190Z,25.50
2018-08-09T13:53:25.978Z,25.43
2018-08-09T13:54:25.851Z,25.39
2018-08-09T13:56:18.647Z,25.46
2018-08-09T13:57:18.600Z,25.43
2018-08-09T13:59:11.445Z,25.43
2018-08-09T14:00:11.349Z,25.38
2018-08-09T14:02:04.145Z,25.46
2018-08-09T14:03:04.099Z,25.42
2018-08-09T14:04:56.943Z,25.44
2018-08-09T14:05:56.846Z,25.44
2018-08-09T14:07:49.641Z,25.47
2018-08-09T14:08:49.598Z,25.44
2018-08-09T14:10:42.470Z,25.39
2018-08-09T14:11:42.344Z,25.37
2018-08-09T14:13:35.138Z,25.50
2018-08-09T14:14:35.093Z,25.42
2018-08-09T14:16:27.935Z,25.42
2018-08-09T14:17:27.842Z,25.39
2018-08-09T14:19:20.637Z,25.47
2018-08-09T14:20:20.591Z,25.42
2018-08-09T14:22:13.432Z,25.38
2018-08-09T14:23:13.343Z,25.47
2018-08-09T14:25:06.170Z,25.37
2018-08-09T14:26:06.091Z,25.35
2018-08-09T14:27:58.934Z,25.39
2018-08-09T14:28:58.840Z,25.43
2018-08-09T14:30:51.642Z,25.39
2018-08-09T14:31:51.647Z,25.46
2018-08-09T14:33:44.436Z,25.43
2018-08-09T14:34:44.343Z,25.39
2018-08-09T14:36:37.138Z,25.43
2018-08-09T14:37:37.119Z,25.43
2018-08-09T14:39:29.934Z,25.43
2018-08-09T14:40:29.842Z,25.42
2018-08-09T14:42:22.651Z,25.39
2018-08-09T14:43:22.590Z,25.50
2018-08-09T14:45:15.416Z,25.44
2018-08-09T14:46:15.340Z,25.43
2018-08-09T14:48:08.136Z,25.42
2018-08-09T14:49:08.092Z,25.43
2018-08-09T14:51:00.933Z,25.43
2018-08-09T14:52:00.841Z,25.43
2018-08-09T14:53:53.635Z,25.44
2018-08-09T14:54:53.587Z,25.44
2018-08-09T14:56:46.986Z,25.42
2018-08-09T14:57:46.337Z,25.47
2018-08-09T14:59:39.132Z,25.47
2018-08-09T15:00:39.087Z,25.43
2018-08-09T15:02:31.929Z,25.44
2018-08-09T15:03:31.835Z,25.42
2018-08-09T15:05:24.634Z,25.43
2018-08-09T15:06:24.586Z,25.47
2018-08-09T15:08:17.410Z,25.43
2018-08-09T15:09:17.337Z,25.44
2018-08-09T15:11:10.132Z,25.43
2018-08-09T15:12:10.089Z,25.43
2018-08-09T15:14:02.928Z,25.46
2018-08-09T15:15:02.833Z,25.39
2018-08-09T15:16:55.630Z,25.47
2018-08-09T15:17:55.583Z,25.43
2018-08-09T15:19:48.410Z,25.43
2018-08-09T15:20:48.333Z,25.46
2018-08-09T15:22:41.188Z,25.43
2018-08-09T15:23:41.079Z,25.47
2018-08-09T15:25:33.906Z,25.39
2018-08-09T15:26:33.829Z,25.43
2018-08-09T15:28:26.625Z,25.38
2018-08-09T15:29:26.578Z,25.44
2018-08-09T15:31:19.404Z,25.46
2018-08-09T15:32:19.328Z,25.44
2018-08-09T15:34:12.122Z,25.39
2018-08-09T15:35:12.079Z,25.38
2018-08-09T15:37:04.918Z,25.32
2018-08-09T15:38:04.898Z,25.39
2018-08-09T15:39:57.620Z,25.50
2018-08-09T15:40:57.574Z,25.43
2018-08-09T15:42:50.400Z,25.42
2018-08-09T15:43:50.325Z,25.43
2018-08-09T15:45:43.119Z,25.44
2018-08-09T15:46:43.072Z,25.38
2018-08-09T15:48:35.897Z,25.42
2018-08-09T15:49:35.822Z,25.43
2018-08-09T15:51:28.616Z,25.37
2018-08-09T15:52:28.576Z,25.35
2018-08-09T15:54:21.398Z,25.46
2018-08-09T15:55:21.321Z,25.43
2018-08-09T15:57:14.117Z,25.43
2018-08-09T15:58:14.072Z,25.38
2018-08-09T16:00:06.912Z,25.43
2018-08-09T16:01:06.822Z,25.42
2018-08-09T16:02:59.614Z,25.44
2018-08-09T16:03:59.568Z,25.44
2018-08-09T16:05:52.392Z,25.46
2018-08-09T16:06:52.314Z,25.42
2018-08-09T16:08:45.108Z,25.43
2018-08-09T16:09:45.062Z,25.42
2018-08-09T16:11:37.905Z,25.39
2018-08-09T16:12:37.812Z,25.39
2018-08-09T16:14:30.615Z,25.49
2018-08-09T16:15:30.564Z,25.43
2018-08-09T16:17:23.390Z,25.44
2018-08-09T16:18:23.315Z,25.43
2018-08-09T16:20:16.132Z,25.42
2018-08-09T16:21:16.085Z,25.43
2018-08-09T16:23:08.961Z,25.43
2018-08-09T16:24:08.831Z,25.47
2018-08-09T16:26:01.626Z,25.44
2018-08-09T16:27:01.581Z,25.34
2018-08-09T16:28:54.410Z,25.43
2018-08-09T16:29:54.380Z,25.42
2018-08-09T16:31:47.131Z,25.34
2018-08-09T16:32:47.082Z,25.39
2018-08-09T16:34:39.908Z,25.39
2018-08-09T16:35:39.870Z,25.43
2018-08-09T16:37:32.628Z,25.46
2018-08-09T16:38:32.582Z,25.49
2018-08-09T16:40:25.406Z,25.42
2018-08-09T16:41:25.330Z,25.42
2018-08-09T16:43:18.126Z,25.39
2018-08-09T16:44:18.076Z,25.49
2018-08-09T16:46:10.920Z,25.42
2018-08-09T16:47:10.825Z,25.44
2018-08-09T16:49:03.622Z,25.47
2018-08-09T16:50:03.575Z,25.44
2018-08-09T16:51:56.402Z,25.42
2018-08-09T16:52:56.329Z,25.43
2018-08-09T16:54:49.119Z,25.47
2018-08-09T16:55:49.072Z,25.47
2018-08-09T16:57:41.899Z,25.47
2018-08-09T16:58:41.821Z,25.44
2018-08-09T17:00:34.616Z,25.43
2018-08-09T17:01:34.569Z,25.39
2018-08-09T17:03:27.393Z,25.44
2018-08-09T17:04:27.318Z,25.39
2018-08-09T17:06:20.110Z,25.44
2018-08-09T17:07:20.065Z,25.39
2018-08-09T17:09:12.892Z,25.43
2018-08-09T17:10:12.816Z,25.38
2018-08-09T17:12:05.612Z,25.38
2018-08-09T17:13:05.565Z,25.46
2018-08-09T17:14:58.390Z,25.32
2018-08-09T17:15:58.315Z,25.32
2018-08-09T17:17:51.113Z,25.43
2018-08-09T17:18:51.063Z,25.32
2018-08-09T17:20:43.889Z,25.35
2018-08-09T17:21:43.814Z,25.28
2018-08-09T17:23:36.608Z,25.35
2018-08-09T17:24:36.563Z,25.43
2018-08-09T17:26:29.387Z,25.34
2018-08-09T17:27:29.310Z,25.31
2018-08-09T17:29:22.130Z,25.35
2018-08-09T17:30:22.085Z,25.25
2018-08-09T17:32:14.906Z,25.31
2018-08-09T17:33:14.829Z,25.32
2018-08-09T17:35:07.626Z,25.34
2018-08-09T17:36:07.580Z,25.37
2018-08-09T17:38:00.406Z,25.35
2018-08-09T17:39:00.332Z,25.35
2018-08-09T17:40:53.125Z,25.34
2018-08-09T17:41:53.079Z,25.37
2018-08-09T17:43:45.904Z,25.34
2018-08-09T17:44:45.828Z,25.34
2018-08-09T17:46:38.624Z,25.43
2018-08-09T17:47:38.575Z,25.31
2018-08-09T17:49:31.401Z,25.32
2018-08-09T17:50:31.324Z,25.28
2018-08-09T17:52:24.163Z,25.28
2018-08-09T17:53:24.076Z,25.28
2018-08-09T17:55:16.915Z,25.25
2018-08-09T17:56:16.822Z,25.32
2018-08-09T17:58:09.619Z,25.25
2018-08-09T17:59:09.572Z,25.20
2018-08-09T18:01:02.399Z,25.16
2018-08-09T18:02:02.321Z,25.22
2018-08-09T18:03:55.120Z,25.16
2018-08-09T18:04:55.089Z,25.20
2018-08-09T18:06:47.896Z,25.20
2018-08-09T18:07:47.826Z,25.19
2018-08-09T18:09:40.616Z,25.17
2018-08-09T18:10:40.570Z,25.19
2018-08-09T18:12:33.412Z,25.19
2018-08-09T18:13:33.319Z,25.22
2018-08-09T18:15:26.115Z,25.24
2018-08-09T18:16:26.088Z,25.19
2018-08-09T18:18:18.896Z,25.30
2018-08-09T18:19:18.836Z,25.19
2018-08-09T18:21:11.623Z,25.30
2018-08-09T18:22:11.588Z,25.22
2018-08-09T18:24:04.463Z,25.25
2018-08-09T18:25:04.319Z,25.31
2018-08-09T18:26:57.114Z,25.20
2018-08-09T18:27:57.069Z,25.20
2018-08-09T18:29:49.893Z,25.12
2018-08-09T18:30:49.816Z,25.09
2018-08-09T18:32:42.667Z,24.97